createdAt,value
2018-04-17T00:00:29.007Z,10.88
2018-04-17T00:02:55.520Z,10.65
2018-04-17T00:05:22.337Z,10.73
2018-04-17T00:07:49.197Z,10.95
2018-04-17T00:10:16.105Z,11.30
2018-04-17T00:12:43.047Z,11.20
2018-04-17T00:17:42.992Z,10.90
2018-04-17T00:20:09.690Z,10.68
2018-04-17T00:22:36.378Z,11.18
2018-04-17T00:25:03.755Z,11.30
2018-04-17T00:27:30.304Z,10.77
2018-04-17T00:29:56.777Z,10.25
2018-04-17T00:32:25.451Z,10.85
2018-04-17T00:34:52.424Z,10.55
2018-04-17T00:37:19.188Z,11.23
2018-04-17T00:39:45.584Z,11.57
2018-04-17T00:42:12.441Z,11.02
2018-04-17T00:44:39.019Z,10.05
2018-04-17T00:47:05.919Z,10.63
2018-04-17T00:49:32.322Z,9.95
2018-04-17T00:51:59.033Z,10.55
2018-04-17T00:54:25.656Z,11.00
2018-04-17T00:56:59.593Z,11.40
2018-04-17T00:59:26.348Z,11.50
2018-04-17T01:01:52.794Z,11.00
2018-04-17T01:04:20.089Z,11.85
2018-04-17T01:06:46.464Z,11.98
2018-04-17T01:09:13.249Z,11.95
2018-04-17T01:11:39.833Z,11.80
2018-04-17T01:14:06.717Z,11.32
2018-04-17T01:16:33.370Z,11.23
2018-04-17T01:19:00.043Z,11.57
2018-04-17T01:21:27.004Z,13.52
2018-04-17T01:23:53.734Z,14.52
2018-04-17T01:26:20.468Z,13.57
2018-04-17T01:28:47.580Z,14.35
2018-04-17T01:31:14.287Z,13.82
2018-04-17T01:33:40.993Z,13.25
2018-04-17T01:36:07.795Z,12.98
2018-04-17T01:38:34.358Z,13.45
2018-04-17T01:41:01.780Z,13.88
2018-04-17T01:43:28.507Z,13.70
2018-04-17T01:45:55.195Z,14.10
2018-04-17T01:48:21.661Z,13.55
2018-04-17T01:50:48.821Z,13.88
2018-04-17T01:53:15.387Z,14.18
2018-04-17T01:55:41.885Z,13.85
2018-04-17T01:58:08.869Z,13.40
2018-04-17T02:00:35.667Z,13.70
2018-04-17T02:03:02.749Z,13.60
2018-04-17T02:05:29.461Z,13.20
2018-04-17T02:07:56.688Z,14.13
2018-04-17T02:10:23.938Z,13.62
2018-04-17T02:12:50.659Z,13.55
2018-04-17T02:15:17.693Z,13.25
2018-04-17T02:17:44.343Z,13.82
2018-04-17T02:20:11.397Z,14.07
2018-04-17T02:22:37.928Z,14.80
2018-04-17T02:25:06.170Z,13.52
2018-04-17T02:27:32.790Z,14.40
2018-04-17T02:29:59.991Z,14.65
2018-04-17T02:32:26.797Z,14.13
2018-04-17T02:34:53.713Z,14.70
2018-04-17T02:37:21.190Z,13.32
2018-04-17T02:39:47.812Z,14.68
2018-04-17T02:42:15.127Z,13.70
2018-04-17T02:44:41.700Z,14.07
2018-04-17T02:47:08.479Z,15.15
2018-04-17T02:49:35.853Z,14.18
2018-04-17T02:52:03.185Z,15.60
2018-04-17T02:54:37.343Z,15.57
2018-04-17T02:57:04.761Z,15.45
2018-04-17T02:59:32.348Z,15.95
2018-04-17T03:01:59.797Z,16.40
2018-04-17T03:04:28.276Z,15.98
2018-04-17T03:06:54.770Z,15.45
2018-04-17T03:09:21.173Z,15.43
2018-04-17T03:11:48.010Z,15.27
2018-04-17T03:14:14.565Z,15.30
2018-04-17T03:16:40.986Z,15.88
2018-04-17T03:19:07.651Z,14.25
2018-04-17T03:21:34.634Z,15.25
2018-04-17T03:24:02.265Z,14.85
2018-04-17T03:26:29.217Z,15.70
2018-04-17T03:28:56.344Z,17.15
2018-04-17T03:31:23.127Z,15.38
2018-04-17T03:33:50.105Z,15.65
2018-04-17T03:36:16.796Z,15.55
2018-04-17T03:38:43.728Z,14.90
2018-04-17T03:41:10.975Z,15.30
2018-04-17T03:43:38.912Z,15.98
2018-04-17T03:46:05.889Z,16.42
2018-04-17T03:48:33.345Z,15.00
2018-04-17T03:51:00.137Z,16.12
2018-04-17T03:53:26.637Z,15.32
2018-04-17T03:55:53.144Z,14.05
2018-04-17T03:58:19.764Z,15.05
2018-04-17T04:00:46.608Z,13.82
2018-04-17T04:03:13.254Z,13.38
2018-04-17T04:05:40.245Z,13.40
2018-04-17T04:08:06.983Z,13.82
2018-04-17T04:10:33.496Z,12.75
2018-04-17T04:13:00.420Z,13.13
2018-04-17T04:15:27.489Z,13.52
2018-04-17T04:18:06.401Z,12.77
2018-04-17T04:20:47.066Z,12.60
2018-04-17T04:23:27.128Z,13.65
2018-04-17T04:26:05.985Z,12.30
2018-04-17T04:28:32.782Z,12.35
2018-04-17T04:30:59.917Z,12.63
2018-04-17T04:33:27.148Z,11.32
2018-04-17T04:35:53.759Z,14.10
2018-04-17T04:38:20.297Z,12.82
2018-04-17T04:40:47.121Z,12.45
2018-04-17T04:43:13.941Z,11.88
2018-04-17T04:45:41.829Z,11.80
2018-04-17T04:48:08.645Z,13.02
2018-04-17T04:50:35.118Z,12.82
2018-04-17T04:53:01.791Z,12.25
2018-04-17T04:55:28.577Z,12.27
2018-04-17T04:57:55.111Z,12.00
2018-04-17T05:00:22.004Z,13.35
2018-04-17T05:02:48.828Z,12.32
2018-04-17T05:05:15.793Z,11.85
2018-04-17T05:07:43.173Z,11.98
2018-04-17T05:10:10.187Z,12.65
2018-04-17T05:12:36.740Z,11.60
2018-04-17T05:15:03.927Z,12.32
2018-04-17T05:17:30.440Z,11.35
2018-04-17T05:19:56.902Z,12.30
2018-04-17T05:22:23.880Z,11.27
2018-04-17T05:24:50.849Z,11.98
2018-04-17T05:27:18.115Z,12.60
2018-04-17T05:29:45.012Z,12.82
2018-04-17T05:32:12.053Z,12.80
2018-04-17T05:34:38.749Z,11.98
2018-04-17T05:37:05.366Z,12.00
2018-04-17T05:39:32.297Z,11.88
2018-04-17T05:41:58.938Z,12.15
2018-04-17T05:44:26.181Z,12.48
2018-04-17T05:46:53.045Z,12.45
2018-04-17T05:49:19.674Z,11.97
2018-04-17T05:51:47.505Z,12.47
2018-04-17T05:54:14.444Z,12.48
2018-04-17T05:56:40.976Z,11.48
2018-04-17T05:59:08.701Z,12.05
2018-04-17T06:01:35.745Z,12.27
2018-04-17T06:04:02.650Z,12.90
2018-04-17T06:06:29.407Z,12.90
2018-04-17T06:08:56.383Z,11.47
2018-04-17T06:11:23.770Z,11.07
2018-04-17T06:13:50.506Z,11.33
2018-04-17T06:16:17.311Z,11.53
2018-04-17T06:18:44.919Z,12.40
2018-04-17T06:21:11.701Z,13.83
2018-04-17T06:23:38.443Z,12.97
2018-04-17T06:26:05.842Z,13.23
2018-04-17T06:28:32.772Z,13.33
2018-04-17T06:30:59.411Z,12.40
2018-04-17T06:33:26.285Z,12.03
2018-04-17T06:35:53.138Z,11.60
2018-04-17T06:38:20.059Z,12.50
2018-04-17T06:40:46.654Z,11.50
2018-04-17T06:43:13.456Z,13.00
2018-04-17T06:45:40.225Z,12.00
2018-04-17T06:48:06.702Z,11.33
2018-04-17T06:50:33.271Z,11.87
2018-04-17T06:53:00.333Z,10.70
2018-04-17T06:55:26.865Z,11.37
2018-04-17T06:57:53.671Z,12.17
2018-04-17T07:00:20.177Z,12.60
2018-04-17T07:02:46.744Z,12.40
2018-04-17T07:05:13.202Z,11.40
2018-04-17T07:07:40.332Z,11.17
2018-04-17T07:10:07.028Z,11.43
2018-04-17T07:12:33.558Z,13.03
2018-04-17T07:15:00.379Z,13.07
2018-04-17T07:17:27.277Z,12.83
2018-04-17T07:19:53.933Z,12.17
2018-04-17T07:22:21.229Z,12.30
2018-04-17T07:24:48.903Z,13.37
2018-04-17T07:27:15.765Z,13.57
2018-04-17T07:29:42.863Z,14.60
2018-04-17T07:32:09.578Z,14.27
2018-04-17T07:34:36.137Z,14.00
2018-04-17T07:37:03.409Z,13.77
2018-04-17T07:39:29.860Z,13.70
2018-04-17T07:41:56.438Z,15.20
2018-04-17T07:44:23.291Z,14.60
2018-04-17T07:47:02.439Z,13.30
2018-04-17T07:49:29.177Z,13.43
2018-04-17T07:51:56.073Z,13.40
2018-04-17T07:54:22.901Z,15.17
2018-04-17T07:56:49.638Z,14.13
2018-04-17T07:59:16.440Z,14.70
2018-04-17T08:01:43.657Z,13.63
2018-04-17T08:04:10.630Z,13.43
2018-04-17T08:06:37.488Z,13.07
2018-04-17T08:09:04.141Z,14.13
2018-04-17T08:11:30.965Z,14.97
2018-04-17T08:13:57.729Z,15.37
2018-04-17T08:16:24.639Z,14.57
2018-04-17T08:18:51.453Z,15.20
2018-04-17T08:21:18.000Z,14.17
2018-04-17T08:23:44.727Z,14.80
2018-04-17T08:26:11.174Z,13.97
2018-04-17T08:28:37.634Z,14.07
2018-04-17T08:31:05.198Z,15.27
2018-04-17T08:33:32.094Z,14.93
2018-04-17T08:35:58.783Z,14.53
2018-04-17T08:38:25.481Z,14.60
2018-04-17T08:40:52.132Z,14.33
2018-04-17T08:43:18.925Z,13.90
2018-04-17T08:45:46.444Z,13.53
2018-04-17T08:48:13.164Z,13.17
2018-04-17T08:50:40.736Z,13.23
2018-04-17T08:53:07.961Z,13.50
2018-04-17T08:55:35.006Z,12.63
2018-04-17T08:58:01.510Z,12.57
2018-04-17T09:00:28.398Z,11.70
2018-04-17T09:02:55.436Z,13.00
2018-04-17T09:05:22.398Z,12.60
2018-04-17T09:07:49.293Z,10.23
2018-04-17T09:10:17.065Z,9.93
2018-04-17T09:12:44.494Z,10.37
2018-04-17T09:15:11.253Z,9.93
2018-04-17T09:17:38.220Z,10.17
2018-04-17T09:20:05.765Z,9.70
2018-04-17T09:22:32.292Z,9.63
2018-04-17T09:24:59.492Z,10.67
2018-04-17T09:27:26.465Z,9.87
2018-04-17T09:29:54.085Z,9.60
2018-04-17T09:32:20.933Z,9.40
2018-04-17T09:34:48.023Z,9.13
2018-04-17T09:37:14.945Z,8.87
2018-04-17T09:39:41.568Z,9.20
2018-04-17T09:42:08.225Z,8.90
2018-04-17T09:44:34.865Z,9.10
2018-04-17T09:47:01.783Z,7.63
2018-04-17T09:49:29.068Z,7.30
2018-04-17T09:51:55.864Z,7.83
2018-04-17T09:54:22.866Z,7.37
2018-04-17T09:56:49.671Z,7.60
2018-04-17T09:59:17.180Z,7.37
2018-04-17T10:01:44.651Z,8.70
2018-04-17T10:04:11.493Z,8.03
2018-04-17T10:06:37.991Z,8.53
2018-04-17T10:09:06.015Z,9.03
2018-04-17T10:11:32.672Z,8.60
2018-04-17T10:13:59.118Z,7.97
2018-04-17T10:16:25.793Z,8.50
2018-04-17T10:18:52.665Z,8.20
2018-04-17T10:21:19.219Z,7.90
2018-04-17T10:23:46.028Z,7.43
2018-04-17T10:26:12.610Z,7.70
2018-04-17T10:28:39.178Z,7.47
2018-04-17T10:31:05.816Z,6.93
2018-04-17T10:33:33.272Z,8.00
2018-04-17T10:36:00.424Z,6.63
2018-04-17T10:38:27.302Z,6.73
2018-04-17T10:40:54.127Z,6.87
2018-04-17T10:43:21.510Z,6.37
2018-04-17T10:45:48.336Z,7.70
2018-04-17T10:48:15.724Z,7.07
2018-04-17T10:50:42.616Z,6.93
2018-04-17T10:53:09.662Z,6.30
2018-04-17T10:55:36.799Z,6.90
2018-04-17T10:58:04.073Z,8.63
2018-04-17T11:00:31.326Z,6.53
2018-04-17T11:02:57.936Z,5.73
2018-04-17T11:05:24.939Z,5.30
2018-04-17T11:07:51.627Z,5.57
2018-04-17T11:10:18.233Z,5.53
2018-04-17T11:12:45.041Z,6.10
2018-04-17T11:15:11.622Z,5.50
2018-04-17T11:17:38.493Z,5.77
2018-04-17T11:20:05.001Z,5.13
2018-04-17T11:22:31.570Z,5.20
2018-04-17T11:24:58.261Z,5.30
2018-04-17T11:27:25.444Z,5.93
2018-04-17T11:29:59.368Z,6.00
2018-04-17T11:32:26.756Z,5.17
2018-04-17T11:34:53.541Z,5.40
2018-04-17T11:37:20.561Z,6.37
2018-04-17T11:39:48.106Z,6.63
2018-04-17T11:42:15.111Z,5.87
2018-04-17T11:44:42.093Z,6.47
2018-04-17T11:47:08.764Z,5.93
2018-04-17T11:49:35.522Z,6.60
2018-04-17T11:52:02.412Z,6.37
2018-04-17T11:54:29.548Z,6.30
2018-04-17T11:56:56.571Z,6.60
2018-04-17T11:59:23.679Z,5.97
2018-04-17T12:01:50.167Z,7.07
2018-04-17T12:04:16.643Z,6.80
2018-04-17T12:06:44.091Z,7.03
2018-04-17T12:09:10.981Z,6.60
2018-04-17T12:11:38.130Z,6.23
2018-04-17T12:14:05.045Z,6.70
2018-04-17T12:16:32.636Z,6.40
2018-04-17T12:18:59.447Z,6.33
2018-04-17T12:21:26.377Z,7.90
2018-04-17T12:23:53.077Z,6.57
2018-04-17T12:26:19.846Z,6.60
2018-04-17T12:28:46.636Z,7.17
2018-04-17T12:31:13.305Z,7.00
2018-04-17T12:33:41.231Z,6.77
2018-04-17T12:36:08.721Z,7.13
2018-04-17T12:38:36.217Z,6.63
2018-04-17T12:41:02.627Z,6.17
2018-04-17T12:43:29.298Z,6.90
2018-04-17T12:45:56.129Z,5.97
2018-04-17T12:48:23.030Z,7.00
2018-04-17T12:50:49.978Z,7.00
2018-04-17T12:53:17.320Z,6.80
2018-04-17T12:55:44.649Z,7.23
2018-04-17T12:58:11.277Z,6.73
2018-04-17T13:00:38.114Z,6.77
2018-04-17T13:03:04.674Z,7.27
2018-04-17T13:05:31.236Z,6.67
2018-04-17T13:07:58.263Z,7.40
2018-04-17T13:10:25.704Z,6.50
2018-04-17T13:12:52.529Z,6.27
2018-04-17T13:15:19.504Z,6.33
2018-04-17T13:17:46.360Z,6.60
2018-04-17T13:20:14.844Z,6.10
2018-04-17T13:22:41.504Z,6.10
2018-04-17T13:25:08.777Z,7.43
2018-04-17T13:27:35.509Z,6.43
2018-04-17T13:30:02.138Z,7.20
2018-04-17T13:32:30.756Z,6.17
2018-04-17T13:34:57.672Z,5.77
2018-04-17T13:37:24.313Z,6.30
2018-04-17T13:39:51.412Z,6.50
2018-04-17T13:42:18.940Z,5.83
2018-04-17T13:44:45.632Z,5.97
2018-04-17T13:47:12.189Z,6.07
2018-04-17T13:49:39.384Z,5.53
2018-04-17T13:52:05.927Z,5.50
2018-04-17T13:54:32.539Z,5.00
2018-04-17T13:57:00.348Z,5.00
2018-04-17T13:59:27.623Z,5.10
2018-04-17T14:01:54.210Z,5.37
2018-04-17T14:04:20.902Z,6.10
2018-04-17T14:06:47.814Z,5.90
2018-04-17T14:09:14.612Z,5.87
2018-04-17T14:11:41.905Z,6.20
2018-04-17T14:14:09.093Z,5.70
2018-04-17T14:16:36.883Z,5.93
2018-04-17T14:19:04.027Z,5.40
2018-04-17T14:21:31.336Z,5.70
2018-04-17T14:23:58.692Z,5.57
2018-04-17T14:26:26.504Z,5.47
2018-04-17T14:28:53.574Z,5.83
2018-04-17T14:31:20.337Z,5.60
2018-04-17T14:33:47.003Z,5.30
2018-04-17T14:36:13.677Z,5.70
2018-04-17T14:38:40.932Z,6.07
2018-04-17T14:41:07.438Z,6.77
2018-04-17T14:43:35.183Z,6.33
2018-04-17T14:46:01.804Z,6.77
2018-04-17T14:48:28.440Z,6.47
2018-04-17T14:50:55.462Z,6.67
2018-04-17T14:53:22.080Z,6.13
2018-04-17T14:55:49.728Z,6.70
2018-04-17T14:58:16.292Z,6.63
2018-04-17T15:00:43.442Z,7.07
2018-04-17T15:03:10.614Z,6.87
2018-04-17T15:05:37.117Z,6.93
2018-04-17T15:08:04.290Z,7.17
2018-04-17T15:10:31.158Z,6.50
2018-04-17T15:12:58.457Z,6.37
2018-04-17T15:15:24.850Z,7.03
2018-04-17T15:17:51.676Z,6.43
2018-04-17T15:20:18.261Z,7.27
2018-04-17T15:22:44.686Z,7.67
2018-04-17T15:25:11.513Z,7.93
2018-04-17T15:27:38.329Z,7.03
2018-04-17T15:30:05.412Z,7.57
2018-04-17T15:32:32.333Z,6.97
2018-04-17T15:34:59.777Z,6.87
2018-04-17T15:37:26.573Z,6.47
2018-04-17T15:39:53.944Z,7.03
2018-04-17T15:42:21.080Z,6.30
2018-04-17T15:44:48.274Z,6.50
2018-04-17T15:47:14.789Z,6.60
2018-04-17T15:49:41.754Z,6.87
2018-04-17T15:52:08.918Z,6.97
2018-04-17T15:54:35.787Z,7.00
2018-04-17T15:57:02.438Z,8.00
2018-04-17T15:59:29.188Z,7.83
2018-04-17T16:01:55.928Z,8.20
2018-04-17T16:04:23.548Z,7.80
2018-04-17T16:06:50.507Z,7.30
2018-04-17T16:09:17.228Z,6.13
2018-04-17T16:11:45.028Z,5.37
2018-04-17T16:14:12.244Z,5.70
2018-04-17T16:16:39.116Z,5.80
2018-04-17T16:19:06.136Z,4.77
2018-04-17T16:21:32.580Z,5.73
2018-04-17T16:23:59.288Z,5.77
2018-04-17T16:26:25.935Z,6.83
2018-04-17T16:28:52.921Z,8.10
2018-04-17T16:31:19.832Z,5.97
2018-04-17T16:33:47.139Z,6.87
2018-04-17T16:36:14.051Z,8.90
2018-04-17T16:38:40.721Z,10.43
2018-04-17T16:41:07.790Z,11.83
2018-04-17T16:43:34.516Z,11.67
2018-04-17T16:46:01.123Z,13.97
2018-04-17T16:48:28.499Z,14.27
2018-04-17T16:50:55.280Z,16.67
2018-04-17T16:53:22.716Z,14.40
2018-04-17T16:55:49.480Z,17.57
2018-04-17T16:58:16.320Z,14.03
2018-04-17T17:00:43.797Z,13.40
2018-04-17T17:03:10.770Z,12.17
2018-04-17T17:05:37.589Z,12.80
2018-04-17T17:08:04.050Z,13.87
2018-04-17T17:10:31.641Z,11.93
2018-04-17T17:13:05.280Z,13.40
2018-04-17T17:15:32.195Z,12.07
2018-04-17T17:17:58.778Z,12.20
2018-04-17T17:20:25.698Z,13.20
2018-04-17T17:22:52.335Z,13.27
2018-04-17T17:25:18.956Z,13.87
2018-04-17T17:27:45.493Z,14.43
2018-04-17T17:30:12.646Z,13.83
2018-04-17T17:32:39.253Z,16.13
2018-04-17T17:35:06.456Z,15.50
2018-04-17T17:37:33.329Z,13.30
2018-04-17T17:39:59.932Z,13.40
2018-04-17T17:42:26.646Z,13.07
2018-04-17T17:44:53.841Z,13.27
2018-04-17T17:47:21.049Z,12.93
2018-04-17T17:49:47.818Z,13.20
2018-04-17T17:52:14.598Z,16.37
2018-04-17T17:54:41.459Z,14.60
2018-04-17T17:57:08.009Z,14.20
2018-04-17T17:59:34.980Z,15.47
2018-04-17T18:02:02.079Z,14.57
2018-04-17T18:04:29.467Z,14.97
2018-04-17T18:06:56.275Z,14.43
2018-04-17T18:11:49.077Z,12.97
2018-04-17T18:14:15.568Z,14.00
2018-04-17T18:16:42.092Z,14.73
2018-04-17T18:19:10.544Z,13.40
2018-04-17T18:21:37.139Z,12.93
2018-04-17T18:24:03.826Z,12.50
2018-04-17T18:26:30.843Z,12.67
2018-04-17T18:28:57.994Z,11.47
2018-04-17T18:31:24.576Z,11.27
2018-04-17T18:33:51.217Z,11.13
2018-04-17T18:36:17.988Z,11.27
2018-04-17T18:38:44.621Z,11.27
2018-04-17T18:41:11.325Z,12.03
2018-04-17T18:43:38.260Z,13.90
2018-04-17T18:46:04.910Z,32.17
2018-04-17T18:48:31.800Z,36.43
2018-04-17T18:50:59.260Z,39.70
2018-04-17T18:53:26.112Z,29.37
2018-04-17T18:55:53.289Z,27.97
2018-04-17T18:58:21.209Z,21.80
2018-04-17T19:00:47.930Z,13.80
2018-04-17T19:03:15.619Z,12.07
2018-04-17T19:05:42.345Z,10.37
2018-04-17T19:08:11.241Z,9.77
2018-04-17T19:10:39.787Z,8.23
2018-04-17T19:13:06.381Z,9.13
2018-04-17T19:15:33.584Z,9.50
2018-04-17T19:18:00.654Z,10.17
2018-04-17T19:20:27.484Z,9.23
2018-04-17T19:22:54.120Z,10.00
2018-04-17T19:25:20.913Z,9.80
2018-04-17T19:27:47.511Z,10.10
2018-04-17T19:30:14.006Z,11.83
2018-04-17T19:32:40.997Z,11.17
2018-04-17T19:35:07.694Z,12.53
2018-04-17T19:37:35.262Z,12.77
2018-04-17T19:40:02.055Z,13.17
2018-04-17T19:42:29.925Z,13.17
2018-04-17T19:44:56.519Z,12.83
2018-04-17T19:47:23.587Z,12.80
2018-04-17T19:49:50.382Z,13.30
2018-04-17T19:52:17.004Z,12.20
2018-04-17T19:54:43.539Z,11.90
2018-04-17T19:57:10.327Z,11.53
2018-04-17T19:59:37.213Z,10.53
2018-04-17T20:02:04.107Z,10.50
2018-04-17T20:04:31.952Z,11.83
2018-04-17T20:06:59.359Z,11.20
2018-04-17T20:09:26.061Z,10.90
2018-04-17T20:11:52.686Z,11.83
2018-04-17T20:14:19.417Z,12.17
2018-04-17T20:16:45.970Z,12.10
2018-04-17T20:19:13.488Z,11.90
2018-04-17T20:21:40.407Z,12.03
2018-04-17T20:24:07.140Z,12.10
2018-04-17T20:26:33.945Z,11.53
2018-04-17T20:29:01.166Z,11.87
2018-04-17T20:31:28.789Z,12.10
2018-04-17T20:33:56.988Z,12.77
2018-04-17T20:36:23.695Z,12.37
2018-04-17T20:38:50.461Z,13.03
2018-04-17T20:41:16.871Z,11.83
2018-04-17T20:43:43.643Z,12.57
2018-04-17T20:46:10.615Z,11.23
2018-04-17T20:48:37.270Z,12.50
2018-04-17T20:51:04.645Z,12.07
2018-04-17T20:53:31.771Z,10.27
2018-04-17T20:55:58.602Z,10.80
2018-04-17T20:58:25.206Z,11.23
2018-04-17T21:00:52.818Z,10.77
2018-04-17T21:03:20.018Z,10.57
2018-04-17T21:05:46.832Z,10.33
2018-04-17T21:08:13.832Z,11.03
2018-04-17T21:10:40.507Z,11.40
2018-04-17T21:13:07.014Z,11.00
2018-04-17T21:15:33.868Z,11.03
2018-04-17T21:18:00.898Z,11.43
2018-04-17T21:20:27.707Z,10.77
2018-04-17T21:22:54.564Z,11.63
2018-04-17T21:25:21.877Z,11.00
2018-04-17T21:27:48.876Z,11.10
2018-04-17T21:30:15.401Z,11.17
2018-04-17T21:32:42.884Z,10.93
2018-04-17T21:35:09.781Z,11.20
2018-04-17T21:37:36.327Z,11.77
2018-04-17T21:40:03.576Z,10.93
2018-04-17T21:42:30.976Z,11.33
2018-04-17T21:44:58.347Z,10.63
2018-04-17T21:47:25.842Z,10.63
2018-04-17T21:49:54.760Z,10.63
2018-04-17T21:52:21.889Z,10.33
2018-04-17T21:54:48.684Z,10.57
2018-04-17T21:57:15.425Z,11.17
2018-04-17T21:59:42.204Z,10.67
2018-04-17T22:02:08.790Z,11.83
2018-04-17T22:04:36.322Z,10.20
2018-04-17T22:07:03.320Z,10.97
2018-04-17T22:09:30.663Z,11.67
2018-04-17T22:11:57.527Z,11.27
2018-04-17T22:14:24.889Z,10.37
2018-04-17T22:16:51.585Z,10.40
2018-04-17T22:19:18.333Z,10.83
2018-04-17T22:21:45.340Z,11.10
2018-04-17T22:24:12.047Z,10.37
2018-04-17T22:26:39.825Z,10.93
2018-04-17T22:29:06.967Z,11.00
2018-04-17T22:31:33.916Z,10.77
2018-04-17T22:34:01.040Z,10.30
2018-04-17T22:36:27.917Z,10.57
2018-04-17T22:38:55.444Z,11.00
2018-04-17T22:41:22.073Z,10.67
2018-04-17T22:43:48.628Z,11.57
2018-04-17T22:46:15.452Z,10.57
2018-04-17T22:48:42.689Z,11.50
2018-04-17T22:51:09.425Z,11.43
2018-04-17T22:53:36.659Z,11.63
2018-04-17T22:56:04.805Z,11.47
2018-04-17T22:58:33.352Z,11.30
2018-04-17T23:01:00.286Z,11.20
2018-04-17T23:03:26.929Z,10.43
2018-04-17T23:05:54.365Z,11.17
2018-04-17T23:08:21.256Z,11.43
2018-04-17T23:10:48.427Z,10.73
2018-04-17T23:13:14.950Z,10.97
2018-04-17T23:15:42.906Z,10.88
2018-04-17T23:18:09.746Z,10.57
2018-04-17T23:20:36.564Z,10.67
2018-04-17T23:23:03.685Z,9.90
2018-04-17T23:25:32.210Z,9.97
2018-04-17T23:27:58.824Z,10.77
2018-04-17T23:30:26.555Z,11.43
2018-04-17T23:32:57.012Z,11.13
2018-04-17T23:35:24.344Z,9.57
2018-04-17T23:37:51.871Z,10.27
2018-04-17T23:40:18.457Z,10.67
2018-04-17T23:42:45.120Z,10.43
2018-04-17T23:45:11.609Z,11.07
2018-04-17T23:47:38.296Z,12.15
2018-04-17T23:50:04.881Z,12.07
2018-04-17T23:52:31.709Z,12.20
2018-04-17T23:54:58.456Z,11.70
2018-04-17T23:57:25.281Z,11.75
2018-04-17T23:59:52.544Z,12.03
